sensor_id;sensor_type;location;lat;lon;timestamp;P1;durP1;ratioP1;P2;durP2;ratioP2
11504;SDS011;5809;53.262;10.408;2023-02-22T00:00:07;30.30;;;20.13;;
11504;SDS011;5809;53.262;10.408;2023-02-22T00:02:43;30.00;;;18.88;;
11504;SDS011;5809;53.262;10.408;2023-02-22T00:05:10;34.78;;;20.95;;
11504;SDS011;5809;53.262;10.408;2023-02-22T00:07:42;40.47;;;22.90;;
11504;SDS011;5809;53.262;10.408;2023-02-22T00:10:09;45.95;;;22.73;;
11504;SDS011;5809;53.262;10.408;2023-02-22T00:12:42;49.10;;;23.75;;
11504;SDS011;5809;53.262;10.408;2023-02-22T00:15:09;44.87;;;23.13;;
11504;SDS011;5809;53.262;10.408;2023-02-22T00:17:38;56.08;;;25.10;;
11504;SDS011;5809;53.262;10.408;2023-02-22T00:20:06;60.33;;;26.17;;
11504;SDS011;5809;53.262;10.408;2023-02-22T00:22:38;53.17;;;24.00;;
11504;SDS011;5809;53.262;10.408;2023-02-22T00:25:05;57.08;;;26.25;;
11504;SDS011;5809;53.262;10.408;2023-02-22T00:27:32;56.90;;;25.42;;
11504;SDS011;5809;53.262;10.408;2023-02-22T00:30:01;56.75;;;25.67;;
11504;SDS011;5809;53.262;10.408;2023-02-22T00:32:28;61.65;;;25.13;;
11504;SDS011;5809;53.262;10.408;2023-02-22T00:34:56;59.40;;;24.70;;
11504;SDS011;5809;53.262;10.408;2023-02-22T00:37:23;49.42;;;24.25;;
11504;SDS011;5809;53.262;10.408;2023-02-22T00:39:50;52.08;;;23.50;;
11504;SDS011;5809;53.262;10.408;2023-02-22T00:42:18;44.83;;;22.27;;
11504;SDS011;5809;53.262;10.408;2023-02-22T00:44:45;43.05;;;20.00;;
11504;SDS011;5809;53.262;10.408;2023-02-22T00:47:14;46.17;;;20.93;;
11504;SDS011;5809;53.262;10.408;2023-02-22T00:49:41;42.80;;;20.80;;
11504;SDS011;5809;53.262;10.408;2023-02-22T00:52:08;47.53;;;21.80;;
11504;SDS011;5809;53.262;10.408;2023-02-22T00:54:35;44.53;;;21.48;;
11504;SDS011;5809;53.262;10.408;2023-02-22T00:57:02;52.17;;;21.92;;
11504;SDS011;5809;53.262;10.408;2023-02-22T00:59:29;49.50;;;22.63;;
11504;SDS011;5809;53.262;10.408;2023-02-22T01:01:57;49.38;;;22.33;;
11504;SDS011;5809;53.262;10.408;2023-02-22T01:04:26;48.83;;;21.98;;
11504;SDS011;5809;53.262;10.408;2023-02-22T01:06:53;53.67;;;23.63;;
11504;SDS011;5809;53.262;10.408;2023-02-22T01:09:20;53.03;;;22.83;;
11504;SDS011;5809;53.262;10.408;2023-02-22T01:11:51;48.40;;;21.73;;
11504;SDS011;5809;53.262;10.408;2023-02-22T01:14:20;44.15;;;21.80;;
11504;SDS011;5809;53.262;10.408;2023-02-22T01:16:50;45.80;;;21.50;;
11504;SDS011;5809;53.262;10.408;2023-02-22T01:19:18;46.00;;;21.00;;
11504;SDS011;5809;53.262;10.408;2023-02-22T01:21:47;49.08;;;22.75;;
11504;SDS011;5809;53.262;10.408;2023-02-22T01:24:14;57.72;;;25.00;;
11504;SDS011;5809;53.262;10.408;2023-02-22T01:26:42;55.72;;;25.67;;
11504;SDS011;5809;53.262;10.408;2023-02-22T01:29:15;55.07;;;24.70;;
11504;SDS011;5809;53.262;10.408;2023-02-22T01:31:49;61.33;;;26.90;;
11504;SDS011;5809;53.262;10.408;2023-02-22T01:34:18;62.15;;;26.80;;
11504;SDS011;5809;53.262;10.408;2023-02-22T01:36:47;63.60;;;26.55;;
11504;SDS011;5809;53.262;10.408;2023-02-22T01:39:14;57.37;;;23.93;;
11504;SDS011;5809;53.262;10.408;2023-02-22T01:41:42;59.77;;;25.30;;
11504;SDS011;5809;53.262;10.408;2023-02-22T01:44:17;64.43;;;25.77;;
11504;SDS011;5809;53.262;10.408;2023-02-22T01:46:46;62.83;;;23.52;;
11504;SDS011;5809;53.262;10.408;2023-02-22T01:49:14;76.95;;;25.65;;
11504;SDS011;5809;53.262;10.408;2023-02-22T01:51:42;76.10;;;24.50;;
11504;SDS011;5809;53.262;10.408;2023-02-22T01:54:13;89.73;;;27.07;;
11504;SDS011;5809;53.262;10.408;2023-02-22T01:56:45;98.17;;;27.87;;
11504;SDS011;5809;53.262;10.408;2023-02-22T01:59:15;119.47;;;28.53;;
11504;SDS011;5809;53.262;10.408;2023-02-22T02:01:44;141.03;;;30.17;;
11504;SDS011;5809;53.262;10.408;2023-02-22T02:04:12;95.10;;;27.37;;
11504;SDS011;5809;53.262;10.408;2023-02-22T02:06:41;113.67;;;26.93;;
11504;SDS011;5809;53.262;10.408;2023-02-22T02:09:09;118.43;;;28.10;;
11504;SDS011;5809;53.262;10.408;2023-02-22T02:11:43;117.93;;;28.60;;
11504;SDS011;5809;53.262;10.408;2023-02-22T02:14:10;127.13;;;27.60;;
11504;SDS011;5809;53.262;10.408;2023-02-22T02:16:39;136.63;;;24.60;;
11504;SDS011;5809;53.262;10.408;2023-02-22T02:19:10;96.07;;;21.93;;
11504;SDS011;5809;53.262;10.408;2023-02-22T02:33:57;96.80;;;22.47;;
11504;SDS011;5809;53.262;10.408;2023-02-22T02:36:28;74.53;;;21.80;;
11504;SDS011;5809;53.262;10.408;2023-02-22T02:38:58;85.67;;;21.30;;
11504;SDS011;5809;53.262;10.408;2023-02-22T02:41:32;83.87;;;21.57;;
11504;SDS011;5809;53.262;10.408;2023-02-22T02:44:11;78.23;;;21.93;;
11504;SDS011;5809;53.262;10.408;2023-02-22T02:46:43;96.13;;;22.73;;
11504;SDS011;5809;53.262;10.408;2023-02-22T02:49:17;61.57;;;20.63;;
11504;SDS011;5809;53.262;10.408;2023-02-22T02:51:48;72.17;;;23.47;;
11504;SDS011;5809;53.262;10.408;2023-02-22T02:54:18;77.87;;;23.60;;
11504;SDS011;5809;53.262;10.408;2023-02-22T02:56:46;72.93;;;21.83;;
11504;SDS011;5809;53.262;10.408;2023-02-22T02:59:24;67.70;;;21.57;;
11504;SDS011;5809;53.262;10.408;2023-02-22T03:01:57;53.67;;;17.60;;
11504;SDS011;5809;53.262;10.408;2023-02-22T03:04:53;42.77;;;15.97;;
11504;SDS011;5809;53.262;10.408;2023-02-22T03:08:00;46.87;;;16.33;;
11504;SDS011;5809;53.262;10.408;2023-02-22T03:10:38;45.40;;;16.60;;
11504;SDS011;5809;53.262;10.408;2023-02-22T03:13:13;41.47;;;14.90;;
11504;SDS011;5809;53.262;10.408;2023-02-22T03:15:45;46.07;;;14.93;;
11504;SDS011;5809;53.262;10.408;2023-02-22T03:18:18;46.53;;;16.00;;
11504;SDS011;5809;53.262;10.408;2023-02-22T03:20:52;39.37;;;14.13;;
11504;SDS011;5809;53.262;10.408;2023-02-22T03:23:25;43.87;;;15.20;;
11504;SDS011;5809;53.262;10.408;2023-02-22T03:25:57;47.00;;;15.53;;
11504;SDS011;5809;53.262;10.408;2023-02-22T03:28:27;50.97;;;16.60;;
11504;SDS011;5809;53.262;10.408;2023-02-22T03:30:57;42.20;;;15.00;;
11504;SDS011;5809;53.262;10.408;2023-02-22T03:33:29;43.77;;;15.17;;
11504;SDS011;5809;53.262;10.408;2023-02-22T03:36:04;49.60;;;15.93;;
11504;SDS011;5809;53.262;10.408;2023-02-22T03:38:37;48.37;;;16.37;;
11504;SDS011;5809;53.262;10.408;2023-02-22T03:41:07;55.17;;;17.20;;
11504;SDS011;5809;53.262;10.408;2023-02-22T03:43:35;54.30;;;18.13;;
11504;SDS011;5809;53.262;10.408;2023-02-22T03:46:07;54.50;;;16.73;;
11504;SDS011;5809;53.262;10.408;2023-02-22T03:48:37;58.07;;;17.53;;
11504;SDS011;5809;53.262;10.408;2023-02-22T03:51:10;54.73;;;17.87;;
11504;SDS011;5809;53.262;10.408;2023-02-22T03:53:39;60.03;;;18.67;;
11504;SDS011;5809;53.262;10.408;2023-02-22T03:56:09;56.23;;;18.50;;
11504;SDS011;5809;53.262;10.408;2023-02-22T03:58:40;55.67;;;19.47;;
11504;SDS011;5809;53.262;10.408;2023-02-22T04:01:10;55.70;;;18.53;;
11504;SDS011;5809;53.262;10.408;2023-02-22T04:03:38;54.40;;;19.93;;
11504;SDS011;5809;53.262;10.408;2023-02-22T04:06:06;55.43;;;17.40;;
11504;SDS011;5809;53.262;10.408;2023-02-22T04:08:34;59.57;;;20.03;;
11504;SDS011;5809;53.262;10.408;2023-02-22T04:11:01;55.90;;;18.87;;
11504;SDS011;5809;53.262;10.408;2023-02-22T04:13:28;59.20;;;19.77;;
11504;SDS011;5809;53.262;10.408;2023-02-22T04:15:55;60.87;;;19.90;;
11504;SDS011;5809;53.262;10.408;2023-02-22T04:18:22;63.80;;;20.43;;
11504;SDS011;5809;53.262;10.408;2023-02-22T04:20:50;63.77;;;20.97;;
11504;SDS011;5809;53.262;10.408;2023-02-22T04:23:16;69.00;;;20.97;;
11504;SDS011;5809;53.262;10.408;2023-02-22T04:25:45;62.17;;;20.73;;
11504;SDS011;5809;53.262;10.408;2023-02-22T04:28:12;66.70;;;20.17;;
11504;SDS011;5809;53.262;10.408;2023-02-22T04:30:39;61.40;;;20.00;;
11504;SDS011;5809;53.262;10.408;2023-02-22T04:33:07;67.77;;;21.30;;
11504;SDS011;5809;53.262;10.408;2023-02-22T04:35:35;64.00;;;21.50;;
11504;SDS011;5809;53.262;10.408;2023-02-22T04:38:03;58.80;;;19.23;;
11504;SDS011;5809;53.262;10.408;2023-02-22T04:40:30;56.40;;;19.03;;
11504;SDS011;5809;53.262;10.408;2023-02-22T04:42:58;50.53;;;17.90;;
11504;SDS011;5809;53.262;10.408;2023-02-22T04:45:25;60.00;;;19.97;;
11504;SDS011;5809;53.262;10.408;2023-02-22T04:47:52;62.97;;;20.00;;
11504;SDS011;5809;53.262;10.408;2023-02-22T04:50:19;56.63;;;19.50;;
11504;SDS011;5809;53.262;10.408;2023-02-22T04:52:47;58.83;;;18.63;;
11504;SDS011;5809;53.262;10.408;2023-02-22T04:55:15;51.90;;;18.23;;
11504;SDS011;5809;53.262;10.408;2023-02-22T04:57:42;53.37;;;19.17;;
11504;SDS011;5809;53.262;10.408;2023-02-22T05:00:14;53.53;;;18.60;;
11504;SDS011;5809;53.262;10.408;2023-02-22T05:02:42;48.30;;;18.20;;
11504;SDS011;5809;53.262;10.408;2023-02-22T05:05:09;41.77;;;16.63;;
11504;SDS011;5809;53.262;10.408;2023-02-22T05:07:38;46.70;;;18.07;;
11504;SDS011;5809;53.262;10.408;2023-02-22T05:10:05;43.47;;;17.07;;
11504;SDS011;5809;53.262;10.408;2023-02-22T05:12:33;47.47;;;17.70;;
11504;SDS011;5809;53.262;10.408;2023-02-22T05:15:01;45.73;;;16.33;;
11504;SDS011;5809;53.262;10.408;2023-02-22T05:17:29;40.60;;;17.20;;
11504;SDS011;5809;53.262;10.408;2023-02-22T05:19:56;44.20;;;16.93;;
11504;SDS011;5809;53.262;10.408;2023-02-22T05:22:23;45.70;;;18.00;;
11504;SDS011;5809;53.262;10.408;2023-02-22T05:24:50;47.37;;;18.50;;
11504;SDS011;5809;53.262;10.408;2023-02-22T05:27:17;49.67;;;17.20;;
11504;SDS011;5809;53.262;10.408;2023-02-22T05:29:45;48.87;;;17.87;;
11504;SDS011;5809;53.262;10.408;2023-02-22T05:32:12;44.17;;;17.47;;
11504;SDS011;5809;53.262;10.408;2023-02-22T05:34:40;44.93;;;16.80;;
11504;SDS011;5809;53.262;10.408;2023-02-22T05:37:07;48.30;;;18.23;;
11504;SDS011;5809;53.262;10.408;2023-02-22T05:39:34;45.90;;;18.27;;
11504;SDS011;5809;53.262;10.408;2023-02-22T05:42:01;51.20;;;18.30;;
11504;SDS011;5809;53.262;10.408;2023-02-22T05:44:28;48.97;;;17.30;;
11504;SDS011;5809;53.262;10.408;2023-02-22T05:46:55;48.47;;;18.63;;
11504;SDS011;5809;53.262;10.408;2023-02-22T05:49:22;51.43;;;18.50;;
11504;SDS011;5809;53.262;10.408;2023-02-22T05:51:51;51.30;;;18.37;;
11504;SDS011;5809;53.262;10.408;2023-02-22T05:54:19;59.40;;;19.70;;
11504;SDS011;5809;53.262;10.408;2023-02-22T05:56:47;59.63;;;20.23;;
11504;SDS011;5809;53.262;10.408;2023-02-22T05:59:13;54.30;;;19.43;;
11504;SDS011;5809;53.262;10.408;2023-02-22T06:01:41;59.53;;;20.70;;
11504;SDS011;5809;53.262;10.408;2023-02-22T06:04:08;57.80;;;20.50;;
11504;SDS011;5809;53.262;10.408;2023-02-22T06:06:35;68.87;;;20.53;;
11504;SDS011;5809;53.262;10.408;2023-02-22T06:09:03;55.90;;;19.03;;
11504;SDS011;5809;53.262;10.408;2023-02-22T06:11:30;69.83;;;21.73;;
11504;SDS011;5809;53.262;10.408;2023-02-22T06:13:57;68.87;;;21.03;;
11504;SDS011;5809;53.262;10.408;2023-02-22T06:16:24;76.77;;;21.77;;
11504;SDS011;5809;53.262;10.408;2023-02-22T06:18:52;76.33;;;22.23;;
11504;SDS011;5809;53.262;10.408;2023-02-22T06:21:19;89.33;;;22.67;;
11504;SDS011;5809;53.262;10.408;2023-02-22T06:23:46;86.10;;;24.10;;
11504;SDS011;5809;53.262;10.408;2023-02-22T06:26:16;83.70;;;23.87;;
11504;SDS011;5809;53.262;10.408;2023-02-22T06:28:43;90.97;;;24.57;;
11504;SDS011;5809;53.262;10.408;2023-02-22T06:31:10;96.57;;;24.80;;
11504;SDS011;5809;53.262;10.408;2023-02-22T06:33:37;97.03;;;24.53;;
11504;SDS011;5809;53.262;10.408;2023-02-22T06:36:04;95.87;;;24.20;;
11504;SDS011;5809;53.262;10.408;2023-02-22T06:38:32;95.43;;;25.13;;
11504;SDS011;5809;53.262;10.408;2023-02-22T06:40:59;78.10;;;23.20;;
11504;SDS011;5809;53.262;10.408;2023-02-22T06:43:28;98.37;;;26.27;;
11504;SDS011;5809;53.262;10.408;2023-02-22T06:45:55;91.90;;;24.60;;
11504;SDS011;5809;53.262;10.408;2023-02-22T06:48:22;90.43;;;24.60;;
11504;SDS011;5809;53.262;10.408;2023-02-22T06:50:49;102.07;;;26.53;;
11504;SDS011;5809;53.262;10.408;2023-02-22T06:53:16;104.53;;;25.30;;
11504;SDS011;5809;53.262;10.408;2023-02-22T06:55:43;100.83;;;24.57;;
11504;SDS011;5809;53.262;10.408;2023-02-22T06:58:10;99.13;;;25.37;;
11504;SDS011;5809;53.262;10.408;2023-02-22T07:00:39;94.17;;;25.13;;
11504;SDS011;5809;53.262;10.408;2023-02-22T07:03:06;98.73;;;24.83;;
11504;SDS011;5809;53.262;10.408;2023-02-22T07:05:33;105.10;;;25.00;;
11504;SDS011;5809;53.262;10.408;2023-02-22T07:08:01;95.60;;;26.67;;
11504;SDS011;5809;53.262;10.408;2023-02-22T07:10:29;91.07;;;25.27;;
11504;SDS011;5809;53.262;10.408;2023-02-22T07:12:57;88.63;;;25.77;;
11504;SDS011;5809;53.262;10.408;2023-02-22T07:15:26;90.00;;;25.43;;
11504;SDS011;5809;53.262;10.408;2023-02-22T07:17:54;87.90;;;26.63;;
11504;SDS011;5809;53.262;10.408;2023-02-22T07:20:22;95.47;;;27.23;;
11504;SDS011;5809;53.262;10.408;2023-02-22T07:22:51;95.33;;;27.50;;
11504;SDS011;5809;53.262;10.408;2023-02-22T07:25:19;89.70;;;26.57;;
11504;SDS011;5809;53.262;10.408;2023-02-22T07:27:47;87.53;;;26.60;;
11504;SDS011;5809;53.262;10.408;2023-02-22T07:30:17;86.53;;;27.13;;
11504;SDS011;5809;53.262;10.408;2023-02-22T07:32:44;90.83;;;26.80;;
11504;SDS011;5809;53.262;10.408;2023-02-22T07:35:17;89.57;;;26.13;;
11504;SDS011;5809;53.262;10.408;2023-02-22T07:37:45;99.07;;;26.67;;
11504;SDS011;5809;53.262;10.408;2023-02-22T07:40:13;85.03;;;26.90;;
11504;SDS011;5809;53.262;10.408;2023-02-22T07:42:54;92.50;;;26.70;;
11504;SDS011;5809;53.262;10.408;2023-02-22T07:45:24;93.07;;;27.33;;
11504;SDS011;5809;53.262;10.408;2023-02-22T07:47:51;88.00;;;26.13;;
11504;SDS011;5809;53.262;10.408;2023-02-22T07:50:20;92.57;;;27.97;;
11504;SDS011;5809;53.262;10.408;2023-02-22T07:52:48;81.10;;;26.00;;
11504;SDS011;5809;53.262;10.408;2023-02-22T07:55:16;81.13;;;25.83;;
11504;SDS011;5809;53.262;10.408;2023-02-22T07:57:44;74.07;;;26.13;;
11504;SDS011;5809;53.262;10.408;2023-02-22T08:00:12;87.20;;;28.17;;
11504;SDS011;5809;53.262;10.408;2023-02-22T08:02:40;81.87;;;27.73;;
11504;SDS011;5809;53.262;10.408;2023-02-22T08:05:07;81.37;;;27.10;;
11504;SDS011;5809;53.262;10.408;2023-02-22T08:07:38;74.33;;;27.40;;
11504;SDS011;5809;53.262;10.408;2023-02-22T08:10:07;74.23;;;26.27;;
11504;SDS011;5809;53.262;10.408;2023-02-22T08:12:35;73.67;;;26.00;;
11504;SDS011;5809;53.262;10.408;2023-02-22T08:15:03;66.80;;;25.70;;
11504;SDS011;5809;53.262;10.408;2023-02-22T08:17:30;67.97;;;25.40;;
11504;SDS011;5809;53.262;10.408;2023-02-22T08:19:57;64.20;;;25.80;;
11504;SDS011;5809;53.262;10.408;2023-02-22T08:22:24;53.03;;;25.37;;
11504;SDS011;5809;53.262;10.408;2023-02-22T08:24:54;55.57;;;24.57;;
11504;SDS011;5809;53.262;10.408;2023-02-22T08:27:22;56.10;;;24.57;;
11504;SDS011;5809;53.262;10.408;2023-02-22T08:29:50;49.53;;;22.93;;
11504;SDS011;5809;53.262;10.408;2023-02-22T08:32:17;41.90;;;21.90;;
11504;SDS011;5809;53.262;10.408;2023-02-22T08:34:44;51.00;;;23.30;;
11504;SDS011;5809;53.262;10.408;2023-02-22T08:37:11;52.33;;;23.37;;
11504;SDS011;5809;53.262;10.408;2023-02-22T08:39:39;52.17;;;23.53;;
11504;SDS011;5809;53.262;10.408;2023-02-22T08:42:07;51.70;;;23.57;;
11504;SDS011;5809;53.262;10.408;2023-02-22T08:44:34;47.50;;;22.27;;
11504;SDS011;5809;53.262;10.408;2023-02-22T08:47:02;45.40;;;22.60;;
11504;SDS011;5809;53.262;10.408;2023-02-22T08:49:29;48.47;;;23.57;;
11504;SDS011;5809;53.262;10.408;2023-02-22T08:51:56;45.90;;;22.33;;
11504;SDS011;5809;53.262;10.408;2023-02-22T08:54:23;49.03;;;23.27;;
11504;SDS011;5809;53.262;10.408;2023-02-22T08:56:50;48.88;;;23.73;;
11504;SDS011;5809;53.262;10.408;2023-02-22T08:59:19;50.20;;;23.43;;
11504;SDS011;5809;53.262;10.408;2023-02-22T09:01:46;49.37;;;23.87;;
11504;SDS011;5809;53.262;10.408;2023-02-22T09:04:13;48.93;;;24.30;;
11504;SDS011;5809;53.262;10.408;2023-02-22T09:06:40;46.40;;;23.35;;
11504;SDS011;5809;53.262;10.408;2023-02-22T09:09:08;45.00;;;23.08;;
11504;SDS011;5809;53.262;10.408;2023-02-22T09:11:35;44.90;;;24.08;;
11504;SDS011;5809;53.262;10.408;2023-02-22T09:14:02;45.28;;;22.67;;
11504;SDS011;5809;53.262;10.408;2023-02-22T09:16:30;38.87;;;22.10;;
11504;SDS011;5809;53.262;10.408;2023-02-22T09:18:58;41.67;;;23.27;;
11504;SDS011;5809;53.262;10.408;2023-02-22T09:21:24;45.40;;;24.23;;
11504;SDS011;5809;53.262;10.408;2023-02-22T09:23:53;42.37;;;23.97;;
11504;SDS011;5809;53.262;10.408;2023-02-22T09:26:20;42.33;;;22.60;;
11504;SDS011;5809;53.262;10.408;2023-02-22T09:28:48;42.78;;;24.38;;
11504;SDS011;5809;53.262;10.408;2023-02-22T09:31:15;42.57;;;23.83;;
11504;SDS011;5809;53.262;10.408;2023-02-22T09:33:44;41.17;;;23.70;;
11504;SDS011;5809;53.262;10.408;2023-02-22T09:36:11;39.27;;;22.97;;
11504;SDS011;5809;53.262;10.408;2023-02-22T09:38:38;41.23;;;23.90;;
11504;SDS011;5809;53.262;10.408;2023-02-22T09:41:08;42.90;;;23.67;;
11504;SDS011;5809;53.262;10.408;2023-02-22T09:43:37;40.80;;;23.40;;
11504;SDS011;5809;53.262;10.408;2023-02-22T09:46:17;35.13;;;21.92;;
11504;SDS011;5809;53.262;10.408;2023-02-22T09:49:01;39.13;;;23.08;;
11504;SDS011;5809;53.262;10.408;2023-02-22T09:51:31;39.22;;;23.52;;
11504;SDS011;5809;53.262;10.408;2023-02-22T09:54:01;41.17;;;23.17;;
11504;SDS011;5809;53.262;10.408;2023-02-22T09:56:29;38.65;;;24.75;;
11504;SDS011;5809;53.262;10.408;2023-02-22T09:58:58;40.58;;;23.30;;
11504;SDS011;5809;53.262;10.408;2023-02-22T10:01:28;40.78;;;24.30;;
11504;SDS011;5809;53.262;10.408;2023-02-22T10:04:03;43.13;;;24.50;;
11504;SDS011;5809;53.262;10.408;2023-02-22T10:06:31;38.65;;;24.77;;
11504;SDS011;5809;53.262;10.408;2023-02-22T10:09:00;37.80;;;24.33;;
11504;SDS011;5809;53.262;10.408;2023-02-22T10:11:34;38.03;;;24.08;;
11504;SDS011;5809;53.262;10.408;2023-02-22T10:14:10;39.90;;;25.70;;
11504;SDS011;5809;53.262;10.408;2023-02-22T10:16:59;38.67;;;24.40;;
11504;SDS011;5809;53.262;10.408;2023-02-22T10:19:35;38.67;;;24.33;;
11504;SDS011;5809;53.262;10.408;2023-02-22T10:22:29;39.28;;;25.08;;
11504;SDS011;5809;53.262;10.408;2023-02-22T10:24:59;41.10;;;25.15;;
11504;SDS011;5809;53.262;10.408;2023-02-22T10:27:31;36.45;;;23.67;;
11504;SDS011;5809;53.262;10.408;2023-02-22T10:30:04;36.80;;;23.52;;
11504;SDS011;5809;53.262;10.408;2023-02-22T10:32:38;36.92;;;23.80;;
11504;SDS011;5809;53.262;10.408;2023-02-22T10:35:15;33.67;;;22.02;;
11504;SDS011;5809;53.262;10.408;2023-02-22T10:37:44;36.38;;;23.52;;
11504;SDS011;5809;53.262;10.408;2023-02-22T10:40:14;33.63;;;22.27;;
11504;SDS011;5809;53.262;10.408;2023-02-22T10:42:42;34.53;;;22.73;;
11504;SDS011;5809;53.262;10.408;2023-02-22T10:45:20;34.55;;;22.50;;
11504;SDS011;5809;53.262;10.408;2023-02-22T10:47:50;29.35;;;20.98;;
11504;SDS011;5809;53.262;10.408;2023-02-22T10:50:24;29.27;;;20.13;;
11504;SDS011;5809;53.262;10.408;2023-02-22T10:52:53;33.08;;;21.10;;
11504;SDS011;5809;53.262;10.408;2023-02-22T10:55:21;31.67;;;21.17;;
11504;SDS011;5809;53.262;10.408;2023-02-22T10:57:50;31.55;;;20.75;;
11504;SDS011;5809;53.262;10.408;2023-02-22T11:00:18;28.60;;;19.63;;
11504;SDS011;5809;53.262;10.408;2023-02-22T11:02:51;30.92;;;19.63;;
11504;SDS011;5809;53.262;10.408;2023-02-22T11:05:28;27.50;;;18.98;;
11504;SDS011;5809;53.262;10.408;2023-02-22T11:10:39;26.83;;;19.20;;
11504;SDS011;5809;53.262;10.408;2023-02-22T11:13:15;28.13;;;19.85;;
11504;SDS011;5809;53.262;10.408;2023-02-22T11:15:43;24.80;;;18.33;;
11504;SDS011;5809;53.262;10.408;2023-02-22T11:18:15;22.38;;;16.75;;
11504;SDS011;5809;53.262;10.408;2023-02-22T11:20:46;25.73;;;18.73;;
11504;SDS011;5809;53.262;10.408;2023-02-22T11:23:13;24.42;;;17.48;;
11504;SDS011;5809;53.262;10.408;2023-02-22T11:25:47;25.27;;;18.75;;
11504;SDS011;5809;53.262;10.408;2023-02-22T11:28:16;24.85;;;18.00;;
11504;SDS011;5809;53.262;10.408;2023-02-22T11:30:55;25.10;;;17.42;;
11504;SDS011;5809;53.262;10.408;2023-02-22T11:33:23;22.33;;;17.00;;
11504;SDS011;5809;53.262;10.408;2023-02-22T11:35:55;22.80;;;17.02;;
11504;SDS011;5809;53.262;10.408;2023-02-22T11:38:24;22.13;;;15.82;;
11504;SDS011;5809;53.262;10.408;2023-02-22T11:41:06;21.80;;;15.32;;
11504;SDS011;5809;53.262;10.408;2023-02-22T11:43:33;19.98;;;14.20;;
11504;SDS011;5809;53.262;10.408;2023-02-22T11:46:01;20.00;;;14.30;;
11504;SDS011;5809;53.262;10.408;2023-02-22T11:48:31;18.48;;;12.93;;
11504;SDS011;5809;53.262;10.408;2023-02-22T11:51:18;20.98;;;14.32;;
11504;SDS011;5809;53.262;10.408;2023-02-22T11:56:50;21.45;;;14.15;;
11504;SDS011;5809;53.262;10.408;2023-02-22T11:59:22;17.48;;;12.75;;
11504;SDS011;5809;53.262;10.408;2023-02-22T12:01:54;19.40;;;13.98;;
11504;SDS011;5809;53.262;10.408;2023-02-22T12:04:29;18.80;;;13.35;;
11504;SDS011;5809;53.262;10.408;2023-02-22T12:07:10;21.27;;;14.18;;
11504;SDS011;5809;53.262;10.408;2023-02-22T12:09:46;17.92;;;13.13;;
11504;SDS011;5809;53.262;10.408;2023-02-22T12:12:17;18.52;;;13.32;;
11504;SDS011;5809;53.262;10.408;2023-02-22T12:14:49;17.58;;;12.98;;
11504;SDS011;5809;53.262;10.408;2023-02-22T12:17:21;17.15;;;13.20;;
11504;SDS011;5809;53.262;10.408;2023-02-22T12:20:07;17.42;;;11.85;;
11504;SDS011;5809;53.262;10.408;2023-02-22T12:22:43;15.32;;;11.73;;
11504;SDS011;5809;53.262;10.408;2023-02-22T12:25:19;15.93;;;11.63;;
11504;SDS011;5809;53.262;10.408;2023-02-22T12:27:47;16.10;;;11.60;;
11504;SDS011;5809;53.262;10.408;2023-02-22T12:30:18;15.63;;;11.45;;
11504;SDS011;5809;53.262;10.408;2023-02-22T12:32:48;17.02;;;12.27;;
11504;SDS011;5809;53.262;10.408;2023-02-22T12:35:19;20.63;;;12.85;;
11504;SDS011;5809;53.262;10.408;2023-02-22T12:37:50;18.30;;;12.68;;
11504;SDS011;5809;53.262;10.408;2023-02-22T12:40:23;17.52;;;12.00;;
11504;SDS011;5809;53.262;10.408;2023-02-22T12:42:55;14.88;;;10.57;;
11504;SDS011;5809;53.262;10.408;2023-02-22T12:45:27;16.17;;;10.73;;
11504;SDS011;5809;53.262;10.408;2023-02-22T12:48:01;15.77;;;11.32;;
11504;SDS011;5809;53.262;10.408;2023-02-22T12:50:42;16.85;;;11.13;;
11504;SDS011;5809;53.262;10.408;2023-02-22T12:53:13;14.13;;;10.88;;
11504;SDS011;5809;53.262;10.408;2023-02-22T12:55:46;15.85;;;10.85;;
11504;SDS011;5809;53.262;10.408;2023-02-22T12:58:20;16.75;;;11.77;;
11504;SDS011;5809;53.262;10.408;2023-02-22T13:00:53;15.75;;;11.13;;
11504;SDS011;5809;53.262;10.408;2023-02-22T13:06:12;16.48;;;10.95;;
11504;SDS011;5809;53.262;10.408;2023-02-22T13:08:44;16.60;;;10.90;;
11504;SDS011;5809;53.262;10.408;2023-02-22T13:11:13;16.48;;;12.35;;
11504;SDS011;5809;53.262;10.408;2023-02-22T13:13:45;14.63;;;10.98;;
11504;SDS011;5809;53.262;10.408;2023-02-22T13:16:21;16.30;;;11.07;;
11504;SDS011;5809;53.262;10.408;2023-02-22T13:18:51;14.10;;;10.73;;
11504;SDS011;5809;53.262;10.408;2023-02-22T13:21:27;15.82;;;10.80;;
11504;SDS011;5809;53.262;10.408;2023-02-22T13:24:03;14.25;;;10.93;;
11504;SDS011;5809;53.262;10.408;2023-02-22T13:26:37;14.35;;;11.07;;
11504;SDS011;5809;53.262;10.408;2023-02-22T13:29:06;15.98;;;11.77;;
11504;SDS011;5809;53.262;10.408;2023-02-22T13:31:45;13.73;;;9.80;;
11504;SDS011;5809;53.262;10.408;2023-02-22T13:37:20;17.85;;;11.45;;
11504;SDS011;5809;53.262;10.408;2023-02-22T13:40:04;17.92;;;11.25;;
11504;SDS011;5809;53.262;10.408;2023-02-22T13:42:44;15.55;;;10.70;;
11504;SDS011;5809;53.262;10.408;2023-02-22T13:48:15;17.65;;;11.48;;
11504;SDS011;5809;53.262;10.408;2023-02-22T13:51:03;14.73;;;10.95;;
11504;SDS011;5809;53.262;10.408;2023-02-22T13:53:39;14.90;;;10.57;;
11504;SDS011;5809;53.262;10.408;2023-02-22T13:56:14;16.60;;;11.43;;
11504;SDS011;5809;53.262;10.408;2023-02-22T13:58:47;15.63;;;11.98;;
11504;SDS011;5809;53.262;10.408;2023-02-22T14:04:19;18.05;;;11.82;;
11504;SDS011;5809;53.262;10.408;2023-02-22T14:06:48;18.20;;;12.80;;
11504;SDS011;5809;53.262;10.408;2023-02-22T14:09:16;17.52;;;11.43;;
11504;SDS011;5809;53.262;10.408;2023-02-22T14:15:12;17.20;;;12.60;;
11504;SDS011;5809;53.262;10.408;2023-02-22T14:17:40;21.42;;;12.63;;
11504;SDS011;5809;53.262;10.408;2023-02-22T14:20:19;16.38;;;11.85;;
11504;SDS011;5809;53.262;10.408;2023-02-22T14:22:56;16.48;;;11.65;;
11504;SDS011;5809;53.262;10.408;2023-02-22T14:25:28;16.30;;;11.98;;
11504;SDS011;5809;53.262;10.408;2023-02-22T14:27:58;18.67;;;11.75;;
11504;SDS011;5809;53.262;10.408;2023-02-22T14:30:29;17.13;;;12.52;;
11504;SDS011;5809;53.262;10.408;2023-02-22T14:32:57;18.05;;;12.43;;
11504;SDS011;5809;53.262;10.408;2023-02-22T14:35:25;18.40;;;12.70;;
11504;SDS011;5809;53.262;10.408;2023-02-22T14:37:55;17.15;;;12.30;;
11504;SDS011;5809;53.262;10.408;2023-02-22T14:40:25;19.55;;;12.25;;
11504;SDS011;5809;53.262;10.408;2023-02-22T14:42:57;18.02;;;12.10;;
11504;SDS011;5809;53.262;10.408;2023-02-22T14:45:29;19.90;;;12.57;;
11504;SDS011;5809;53.262;10.408;2023-02-22T14:47:59;18.13;;;12.65;;
11504;SDS011;5809;53.262;10.408;2023-02-22T14:50:38;18.95;;;13.10;;
11504;SDS011;5809;53.262;10.408;2023-02-22T14:53:11;17.48;;;12.63;;
11504;SDS011;5809;53.262;10.408;2023-02-22T14:55:41;18.23;;;12.98;;
11504;SDS011;5809;53.262;10.408;2023-02-22T14:58:11;19.88;;;12.98;;
11504;SDS011;5809;53.262;10.408;2023-02-22T15:00:44;18.52;;;12.60;;
11504;SDS011;5809;53.262;10.408;2023-02-22T15:03:17;21.80;;;13.88;;
11504;SDS011;5809;53.262;10.408;2023-02-22T15:05:52;19.13;;;12.35;;
11504;SDS011;5809;53.262;10.408;2023-02-22T15:08:19;21.50;;;13.50;;
11504;SDS011;5809;53.262;10.408;2023-02-22T15:10:52;18.20;;;12.10;;